Time;durP1;ratioP1;P1;durP2;ratioP2;P2;SDS_P1;SDS_P2;PMS_P1;PMS_P2;Temp;Humidity;BMP_temperature;BMP_pressure;BME280_temperature;BME280_humidity;BME280_pressure;Samples;Min_cycle;Max_cycle;Signal;HPM_P1;HPM_P2
2022/09/09 00:02:17;;;;;;;3.55;1.60;;;;;;;14.29;87.26;100689.44;4953957;28;20393;-75
2022/09/09 00:05:01;;;;;;;1.75;1.65;;;;;;;14.27;87.12;100687.81;4949619;28;20052;-76
2022/09/09 00:07:51;;;;;;;2.80;1.70;;;;;;;14.21;87.35;100688.97;4952376;28;20046;-76
2022/09/09 00:10:29;;;;;;;2.95;1.90;;;;;;;14.20;87.73;100692.53;4951058;28;20048;-77
2022/09/09 00:13:45;;;;;;;3.60;1.77;;;;;;;14.20;87.77;100691.69;4949129;28;20114;-72
2022/09/09 00:16:41;;;;;;;2.05;1.77;;;;;;;14.18;87.63;100691.78;4951074;28;20055;-72
2022/09/09 00:19:44;;;;;;;3.15;1.90;;;;;;;14.21;88.08;100690.78;4950859;28;20047;-73
2022/09/09 00:22:17;;;;;;;4.63;1.88;;;;;;;14.20;87.87;100686.41;4952735;28;20139;-74
2022/09/09 00:24:56;;;;;;;2.95;2.35;;;;;;;14.19;87.95;100679.38;4951092;28;20036;-74
2022/09/09 00:27:44;;;;;;;5.43;2.28;;;;;;;14.18;87.93;100672.34;4950227;28;20044;-73
2022/09/09 00:30:11;;;;;;;3.40;2.40;;;;;;;14.14;87.95;100672.50;4952281;28;20055;-74
2022/09/09 00:32:38;;;;;;;2.72;2.03;;;;;;;14.13;88.17;100677.88;4952703;28;20539;-74
2022/09/09 00:35:26;;;;;;;3.65;1.85;;;;;;;14.11;88.28;100675.31;4937800;28;20051;-73
2022/09/09 00:38:01;;;;;;;3.90;2.10;;;;;;;14.09;88.26;100673.66;4951265;28;20048;-74
2022/09/09 00:40:35;;;;;;;4.40;2.63;;;;;;;14.08;88.33;100674.59;4951796;28;20043;-74
2022/09/09 00:43:30;;;;;;;5.00;2.63;;;;;;;14.04;88.29;100673.00;4950899;28;20046;-74
2022/09/09 00:46:33;;;;;;;3.95;2.92;;;;;;;14.01;88.38;100678.44;4940549;28;20118;-74
2022/09/09 00:49:37;;;;;;;3.15;2.20;;;;;;;13.98;88.40;100674.16;4950133;28;20123;-74
2022/09/09 00:52:29;;;;;;;3.00;2.38;;;;;;;13.94;88.57;100669.94;4937407;28;20056;-74
2022/09/09 00:55:21;;;;;;;2.80;2.17;;;;;;;13.91;88.25;100664.78;4951405;28;20126;-74
2022/09/09 00:57:52;;;;;;;3.10;2.30;;;;;;;13.89;88.64;100675.44;4950516;28;20032;-74
2022/09/09 01:00:35;;;;;;;2.97;2.28;;;;;;;13.88;88.80;100664.94;4950177;28;20095;-74
2022/09/09 01:03:35;;;;;;;3.55;2.50;;;;;;;13.88;88.68;100667.56;4949908;28;20040;-74
2022/09/09 01:06:32;;;;;;;3.67;2.22;;;;;;;13.85;88.59;100676.53;4938326;28;20111;-74
2022/09/09 01:09:50;;;;;;;3.67;2.10;;;;;;;13.84;88.56;100671.31;4928789;28;20047;-73
2022/09/09 01:12:43;;;;;;;4.22;2.10;;;;;;;13.79;89.00;100664.44;4935609;28;20055;-73
2022/09/09 01:15:35;;;;;;;4.53;2.78;;;;;;;13.78;89.07;100667.16;4937377;28;20052;-74
2022/09/09 01:18:28;;;;;;;3.95;2.35;;;;;;;13.78;89.35;100659.22;4947406;28;20056;-74
2022/09/09 01:21:33;;;;;;;4.22;2.63;;;;;;;13.78;89.31;100659.22;4949218;28;20052;-74
2022/09/09 01:24:35;;;;;;;2.70;2.35;;;;;;;13.75;89.34;100657.53;4919973;28;20044;-74
2022/09/09 01:27:25;;;;;;;4.10;2.60;;;;;;;13.72;89.33;100643.59;4947194;28;20063;-74
2022/09/09 01:29:52;;;;;;;3.78;2.53;;;;;;;13.72;89.45;100654.19;4949890;28;20423;-74
2022/09/09 01:32:47;;;;;;;4.32;2.60;;;;;;;13.72;89.38;100659.47;4945474;28;20111;-74
2022/09/09 01:35:44;;;;;;;4.97;2.80;;;;;;;13.72;89.78;100664.78;4950492;28;20044;-74
2022/09/09 01:38:13;;;;;;;3.25;2.60;;;;;;;13.71;89.58;100652.47;4952015;28;20059;-74
2022/09/09 01:40:40;;;;;;;3.95;2.90;;;;;;;13.70;89.78;100659.56;4948593;28;20044;-74
2022/09/09 01:43:09;;;;;;;3.58;2.70;;;;;;;13.71;89.70;100660.41;4953201;28;20503;-74
2022/09/09 01:45:41;;;;;;;4.38;2.95;;;;;;;13.68;89.52;100661.41;4937146;28;20119;-76
2022/09/09 01:48:08;;;;;;;6.30;2.90;;;;;;;13.66;89.47;100652.69;4950744;28;20556;-76
2022/09/09 01:51:00;;;;;;;3.95;2.90;;;;;;;13.67;89.49;100654.41;4952513;28;20043;-76
2022/09/09 01:53:48;;;;;;;4.35;2.53;;;;;;;13.63;89.62;100651.03;4942449;28;20051;-76
2022/09/09 01:56:46;;;;;;;5.72;2.80;;;;;;;13.63;89.72;100652.84;4937521;28;20533;-76
2022/09/09 01:59:52;;;;;;;5.80;2.55;;;;;;;13.63;89.89;100656.34;4935861;28;20040;-76
2022/09/09 02:02:35;;;;;;;6.45;2.80;;;;;;;13.62;89.75;100651.13;4943523;28;20043;-75
2022/09/09 02:05:36;;;;;;;3.22;2.80;;;;;;;13.60;89.94;100645.88;4942572;28;20048;-75
2022/09/09 02:08:28;;;;;;;5.60;2.92;;;;;;;13.60;90.07;100645.88;4942953;28;20043;-75
2022/09/09 02:11:25;;;;;;;7.37;2.97;;;;;;;13.61;90.17;100655.53;4950158;28;20534;-74
2022/09/09 02:14:18;;;;;;;4.57;2.97;;;;;;;13.60;90.04;100651.16;4950161;28;20298;-74
2022/09/09 02:16:57;;;;;;;4.38;2.90;;;;;;;13.61;90.30;100646.75;4940271;28;20055;-74
2022/09/09 02:19:50;;;;;;;5.68;3.00;;;;;;;13.62;90.34;100644.00;4952213;28;20047;-75
2022/09/09 02:22:31;;;;;;;5.53;3.10;;;;;;;13.61;90.26;100644.94;4949636;28;20051;-74
2022/09/09 02:25:02;;;;;;;6.50;3.03;;;;;;;13.61;90.40;100641.44;4959757;28;20047;-76
2022/09/09 02:27:29;;;;;;;4.80;3.40;;;;;;;13.62;90.40;100640.53;4951141;28;20047;-75
2022/09/09 02:30:02;;;;;;;4.93;3.10;;;;;;;13.60;90.64;100637.91;4920511;28;20095;-76
2022/09/09 02:32:43;;;;;;;7.20;3.38;;;;;;;13.59;90.68;100638.00;4940018;28;20197;-75
2022/09/09 02:35:19;;;;;;;5.78;3.10;;;;;;;13.60;90.75;100632.63;4941669;28;20096;-75
2022/09/09 02:37:47;;;;;;;5.40;3.25;;;;;;;13.58;90.75;100631.00;4948022;28;20519;-75
2022/09/09 02:40:16;;;;;;;5.50;2.97;;;;;;;13.56;90.82;100628.41;4951870;28;20091;-75
2022/09/09 02:42:49;;;;;;;6.07;3.00;;;;;;;13.57;90.63;100624.84;4938759;28;20523;-75
2022/09/09 02:45:24;;;;;;;4.30;3.20;;;;;;;13.56;90.92;100630.19;4952514;28;20151;-74
2022/09/09 02:48:22;;;;;;;6.18;3.00;;;;;;;13.56;90.86;100631.06;4952866;28;20877;-77
2022/09/09 02:51:18;;;;;;;6.47;3.35;;;;;;;13.57;90.81;100630.13;4918479;29;20044;-77
2022/09/09 02:54:09;;;;;;;4.35;3.05;;;;;;;13.57;90.85;100634.56;4951641;28;20547;-75
2022/09/09 02:56:44;;;;;;;5.20;3.13;;;;;;;13.57;90.83;100635.44;4936542;28;20043;-75
2022/09/09 02:59:12;;;;;;;9.82;3.40;;;;;;;13.57;90.88;100629.25;4953915;28;20054;-77
2022/09/09 03:01:41;;;;;;;6.97;3.10;;;;;;;13.57;91.05;100629.25;4949840;28;20048;-77
2022/09/09 03:04:09;;;;;;;6.97;3.00;;;;;;;13.59;91.08;100640.66;4952212;28;20134;-76
2022/09/09 03:06:38;;;;;;;8.93;3.53;;;;;;;13.60;91.25;100640.56;4941105;28;20044;-76
2022/09/09 03:09:16;;;;;;;8.75;3.78;;;;;;;13.62;91.26;100648.47;4923178;28;20044;-77
2022/09/09 03:11:44;;;;;;;7.28;3.33;;;;;;;13.65;91.46;100646.53;4952150;28;20043;-76
2022/09/09 03:14:13;;;;;;;6.93;3.28;;;;;;;13.66;91.47;100645.59;4936983;28;20048;-76
2022/09/09 03:16:42;;;;;;;8.75;3.60;;;;;;;13.67;91.44;100643.81;4935040;28;20054;-76
2022/09/09 03:19:10;;;;;;;8.13;3.40;;;;;;;13.66;91.41;100644.72;4953009;28;20047;-70
2022/09/09 03:21:37;;;;;;;10.98;3.72;;;;;;;13.70;91.75;100640.16;4952928;28;20050;-70
2022/09/09 03:24:06;;;;;;;7.55;3.50;;;;;;;13.68;91.62;100640.22;4936903;28;20051;-70
2022/09/09 03:26:33;;;;;;;7.45;3.50;;;;;;;13.69;91.78;100641.06;4935405;28;20108;-70
2022/09/09 03:29:00;;;;;;;7.25;3.30;;;;;;;13.71;91.83;100644.50;4952393;28;20043;-70
2022/09/09 03:31:30;;;;;;;6.97;3.50;;;;;;;13.72;91.86;100635.63;4940626;28;20064;-70
2022/09/09 03:33:58;;;;;;;9.23;3.63;;;;;;;13.75;91.93;100633.69;4952820;28;20040;-70
2022/09/09 03:36:29;;;;;;;9.60;3.90;;;;;;;13.76;91.77;100643.38;4934075;29;20044;-71
2022/09/09 03:38:57;;;;;;;5.82;3.50;;;;;;;13.80;91.95;100644.06;4944735;28;20524;-71
2022/09/09 03:41:27;;;;;;;6.50;3.50;;;;;;;13.80;91.83;100637.00;4945676;28;20055;-70
2022/09/09 03:43:55;;;;;;;6.35;3.42;;;;;;;13.81;92.03;100637.84;4952691;28;20075;-70
2022/09/09 03:46:26;;;;;;;6.75;3.70;;;;;;;13.87;92.14;100639.34;4951632;28;20826;-71
2022/09/09 03:48:53;;;;;;;6.10;3.60;;;;;;;13.90;92.27;100636.56;4936325;28;20058;-71
2022/09/09 03:51:21;;;;;;;7.07;3.38;;;;;;;13.96;92.45;100644.22;4933882;28;20070;-70
2022/09/09 03:53:48;;;;;;;8.45;3.72;;;;;;;14.02;92.72;100640.41;4951716;28;20083;-70
2022/09/09 03:56:15;;;;;;;10.68;4.03;;;;;;;14.08;92.59;100648.09;4948602;28;20051;-71
2022/09/09 03:58:43;;;;;;;10.75;3.83;;;;;;;14.12;92.75;100642.56;4936590;28;20052;-70
2022/09/09 04:01:13;;;;;;;7.95;3.95;;;;;;;14.18;92.75;100649.38;4951613;28;20134;-71
2022/09/09 04:03:44;;;;;;;7.95;3.97;;;;;;;14.21;92.53;100645.69;4951257;28;20080;-70
2022/09/09 04:06:14;;;;;;;10.05;3.83;;;;;;;14.23;92.53;100644.69;4934872;28;20055;-70
2022/09/09 04:08:44;;;;;;;8.63;3.58;;;;;;;14.26;92.50;100644.53;4950062;28;20044;-70
2022/09/09 04:11:13;;;;;;;6.72;3.70;;;;;;;14.31;92.54;100648.75;4952935;28;20047;-70
2022/09/09 04:13:41;;;;;;;10.18;4.20;;;;;;;14.32;92.40;100638.09;4944851;28;20071;-72
2022/09/09 04:16:13;;;;;;;9.00;3.72;;;;;;;14.34;92.30;100644.19;4951371;28;20142;-71
2022/09/09 04:18:42;;;;;;;9.55;3.85;;;;;;;14.36;92.32;100630.84;4931394;28;20058;-71
2022/09/09 04:21:12;;;;;;;10.38;3.88;;;;;;;14.36;92.28;100636.97;4934628;28;20035;-75
2022/09/09 04:23:40;;;;;;;9.98;3.90;;;;;;;14.40;92.27;100635.03;4948834;28;20123;-75
2022/09/09 04:26:08;;;;;;;7.47;3.72;;;;;;;14.41;92.35;100631.44;4953002;28;20047;-75
2022/09/09 04:28:37;;;;;;;10.45;3.83;;;;;;;14.42;92.35;100626.09;4952091;28;20099;-75
2022/09/09 04:31:18;;;;;;;7.60;3.63;;;;;;;14.45;92.15;100627.72;4937986;28;20043;-75
2022/09/09 04:33:46;;;;;;;10.25;3.90;;;;;;;14.46;92.23;100618.81;4959399;28;20074;-75
2022/09/09 04:36:13;;;;;;;8.75;3.90;;;;;;;14.48;92.14;100616.97;4949724;28;20048;-75
2022/09/09 04:38:41;;;;;;;6.03;3.30;;;;;;;14.52;92.25;100620.31;4934360;28;20059;-73
2022/09/09 04:41:10;;;;;;;11.52;3.53;;;;;;;14.56;92.29;100622.72;4946078;28;20043;-73
2022/09/09 04:43:39;;;;;;;8.40;3.47;;;;;;;14.58;92.24;100625.31;4928976;28;20051;-73
2022/09/09 04:46:07;;;;;;;8.60;3.55;;;;;;;14.63;92.12;100622.41;4935917;28;20515;-73
2022/09/09 04:48:34;;;;;;;6.03;3.70;;;;;;;14.67;92.09;100622.22;4944932;28;20044;-73
2022/09/09 04:51:07;;;;;;;5.80;3.25;;;;;;;14.70;92.00;100615.91;4934574;28;20108;-74
2022/09/09 04:53:34;;;;;;;8.98;3.67;;;;;;;14.73;92.04;100613.97;4950335;28;20047;-73
2022/09/09 04:56:18;;;;;;;6.78;3.13;;;;;;;14.76;91.77;100615.59;4942562;28;20048;-73
2022/09/09 04:58:50;;;;;;;8.40;3.00;;;;;;;14.81;92.02;100618.00;4934159;28;20044;-73
2022/09/09 05:01:24;;;;;;;8.65;3.00;;;;;;;14.90;92.14;100615.72;4953015;28;20048;-73
2022/09/09 05:03:53;;;;;;;12.43;3.10;;;;;;;14.99;91.77;100609.06;4951229;28;20044;-73
2022/09/09 05:06:22;;;;;;;6.97;3.00;;;;;;;15.04;91.45;100609.72;4955346;28;20118;-74
2022/09/09 05:08:54;;;;;;;6.90;2.80;;;;;;;15.07;91.16;100600.72;4944757;28;20040;-74
2022/09/09 05:11:31;;;;;;;4.82;2.33;;;;;;;15.07;91.00;100598.91;4935690;28;20047;-73
2022/09/09 05:14:05;;;;;;;11.38;2.80;;;;;;;15.10;90.74;100600.56;4951517;28;20055;-73
2022/09/09 05:16:32;;;;;;;8.73;3.05;;;;;;;15.11;90.51;100593.44;4950664;28;20047;-73
2022/09/09 05:18:59;;;;;;;7.07;2.45;;;;;;;15.10;90.07;100591.72;4940861;28;20107;-76
2022/09/09 05:21:35;;;;;;;12.48;2.38;;;;;;;15.08;90.33;100599.78;4937745;28;20053;-76
2022/09/09 05:24:03;;;;;;;7.00;2.47;;;;;;;15.10;90.16;100603.22;4936465;28;20051;-76
2022/09/09 05:26:31;;;;;;;10.07;3.13;;;;;;;15.11;90.16;100607.56;4949204;28;20107;-75
2022/09/09 05:29:00;;;;;;;7.45;2.72;;;;;;;15.11;90.22;100607.56;4943732;28;20047;-76
2022/09/09 05:31:30;;;;;;;6.70;2.42;;;;;;;15.15;90.17;100609.13;4940964;28;20044;-77
2022/09/09 05:34:02;;;;;;;8.23;2.38;;;;;;;15.19;90.08;100605.38;4955283;28;20039;-76
2022/09/09 05:36:29;;;;;;;16.20;2.70;;;;;;;15.20;89.94;100604.44;4939613;28;20066;-76
2022/09/09 05:38:56;;;;;;;9.20;2.45;;;;;;;15.21;89.75;100598.16;4958593;28;20633;-76
2022/09/09 05:41:26;;;;;;;7.45;2.30;;;;;;;15.22;89.39;100599.03;4944699;28;20050;-75
2022/09/09 05:43:55;;;;;;;11.88;2.20;;;;;;;15.20;89.21;100601.78;4949945;28;20048;-75
2022/09/09 05:46:24;;;;;;;10.60;2.70;;;;;;;15.21;89.26;100606.13;4933148;28;20055;-76
2022/09/09 05:48:54;;;;;;;9.32;2.17;;;;;;;15.20;89.18;100599.13;4950589;28;20048;-76
2022/09/09 05:51:29;;;;;;;8.73;1.95;;;;;;;15.26;89.11;100603.22;4943009;28;20135;-76
2022/09/09 05:53:59;;;;;;;10.93;2.42;;;;;;;15.28;89.16;100605.81;4936518;28;20048;-76
2022/09/09 05:56:29;;;;;;;6.68;2.03;;;;;;;15.34;88.98;100608.13;4915825;29;20044;-76
2022/09/09 05:59:02;;;;;;;10.15;2.45;;;;;;;15.38;88.83;100610.53;4915039;29;20044;-75
2022/09/09 06:01:34;;;;;;;14.75;2.40;;;;;;;15.44;88.67;100605.84;4947324;28;20036;-75
2022/09/09 06:04:03;;;;;;;8.80;1.92;;;;;;;15.53;88.41;100615.97;4948627;28;20063;-76
2022/09/09 06:06:36;;;;;;;9.70;1.85;;;;;;;15.59;88.09;100620.09;4950313;28;20040;-76
2022/09/09 06:09:10;;;;;;;12.20;2.42;;;;;;;15.64;88.19;100610.06;4950071;28;20056;-76
2022/09/09 06:11:40;;;;;;;20.30;2.67;;;;;;;15.68;87.89;100607.13;4933295;28;20055;-76
2022/09/09 06:14:08;;;;;;;10.40;2.55;;;;;;;15.73;87.69;100614.00;4951960;28;20142;-77
2022/09/09 06:16:37;;;;;;;10.13;2.00;;;;;;;15.78;87.55;100615.47;4937387;28;20099;-77
2022/09/09 06:19:12;;;;;;;9.48;2.13;;;;;;;15.88;87.50;100615.00;4938238;28;20131;-77
2022/09/09 06:21:40;;;;;;;11.85;2.55;;;;;;;15.98;86.95;100616.19;4937089;28;20052;-77
2022/09/09 06:24:08;;;;;;;11.20;2.33;;;;;;;16.07;86.58;100615.66;4938047;28;20098;-77
2022/09/09 06:26:41;;;;;;;8.07;2.08;;;;;;;16.22;85.80;100611.25;4953086;28;20040;-77
2022/09/09 06:29:12;;;;;;;7.07;2.30;;;;;;;16.30;85.26;100614.31;4951984;28;20071;-76
2022/09/09 06:31:41;;;;;;;13.50;2.65;;;;;;;16.38;84.72;100618.38;4936802;28;20051;-76
2022/09/09 06:34:19;;;;;;;15.98;2.65;;;;;;;16.39;84.55;100618.25;4952771;28;20123;-76
2022/09/09 06:36:50;;;;;;;8.20;2.40;;;;;;;16.42;84.26;100619.88;4953416;28;20522;-76
2022/09/09 06:39:17;;;;;;;14.23;2.17;;;;;;;16.46;84.28;100616.09;4955338;28;20869;-76
2022/09/09 06:41:46;;;;;;;9.60;2.30;;;;;;;16.50;84.48;100617.63;4937729;28;20050;-76
2022/09/09 06:44:33;;;;;;;10.18;2.30;;;;;;;16.56;84.29;100617.28;4953959;28;20047;-76
2022/09/09 06:47:03;;;;;;;8.88;2.08;;;;;;;16.63;83.53;100614.25;4953445;28;20531;-76
2022/09/09 06:49:31;;;;;;;13.93;3.10;;;;;;;16.68;82.99;100615.69;4937465;28;20036;-76
2022/09/09 06:51:58;;;;;;;10.90;2.22;;;;;;;16.72;82.46;100608.38;4936775;28;20060;-75
2022/09/09 06:54:28;;;;;;;12.30;2.25;;;;;;;16.72;82.19;100614.56;4937130;28;20181;-76
2022/09/09 06:56:55;;;;;;;13.30;2.47;;;;;;;16.77;82.50;100612.47;4944076;28;20554;-76
2022/09/09 06:59:23;;;;;;;24.98;3.20;;;;;;;16.85;82.09;100616.47;4936841;28;20056;-76
2022/09/09 07:01:54;;;;;;;14.05;2.50;;;;;;;16.95;81.91;100617.66;4935933;28;20044;-76
2022/09/09 07:04:23;;;;;;;7.28;1.98;;;;;;;17.05;81.08;100616.16;4938272;28;20452;-76
2022/09/09 07:06:52;;;;;;;15.20;2.90;;;;;;;17.05;81.36;100612.63;4936893;28;20059;-75
2022/09/09 07:09:24;;;;;;;11.30;2.15;;;;;;;17.11;81.14;100614.91;4949473;28;20546;-75
2022/09/09 07:11:53;;;;;;;10.88;2.22;;;;;;;17.14;80.13;100616.56;4953140;28;20040;-75
2022/09/09 07:14:23;;;;;;;9.40;2.20;;;;;;;17.11;80.27;100619.41;4953264;28;20582;-75
2022/09/09 07:16:57;;;;;;;;;;;;;;;17.05;80.49;100616.16;4937208;28;20071;-76
2022/09/09 07:19:27;;;;;;;13.32;2.25;;;;;;;17.07;80.50;100616.91;4952336;28;19957;-76
2022/09/09 07:21:55;;;;;;;12.48;2.40;;;;;;;17.16;79.99;100618.16;4953246;28;20972;-74
2022/09/09 07:24:24;;;;;;;12.90;2.28;;;;;;;17.31;79.49;100623.47;4936456;28;20059;-75
2022/09/09 07:26:53;;;;;;;11.75;2.17;;;;;;;17.44;79.16;100623.59;4952086;28;20044;-75
2022/09/09 07:29:20;;;;;;;13.68;2.20;;;;;;;17.40;79.05;100622.91;4937341;28;20595;-75
2022/09/09 07:31:51;;;;;;;12.35;2.45;;;;;;;17.39;78.92;100615.88;4952881;28;20035;-76
2022/09/09 07:34:24;;;;;;;13.20;2.60;;;;;;;17.36;78.86;100618.75;4937438;28;20043;-75
2022/09/09 07:36:51;;;;;;;11.90;2.28;;;;;;;17.42;78.14;100623.66;4951462;28;20075;-75
2022/09/09 07:39:19;;;;;;;7.82;1.70;;;;;;;17.51;78.15;100615.09;4936578;28;20118;-76
2022/09/09 07:41:54;;;;;;;11.82;2.47;;;;;;;17.59;77.25;100619.09;4936650;28;20040;-74
2022/09/09 07:44:26;;;;;;;8.20;2.33;;;;;;;17.74;77.37;100617.28;4949073;28;20047;-75
2022/09/09 07:47:07;;;;;;;14.23;2.40;;;;;;;17.98;77.48;100621.03;4932737;28;20119;-75
2022/09/09 07:49:40;;;;;;;9.13;1.80;;;;;;;18.19;75.45;100612.59;4945936;28;20043;-75
2022/09/09 07:52:08;;;;;;;9.02;1.63;;;;;;;18.41;75.73;100612.03;4939831;28;20555;-74
2022/09/09 07:54:39;;;;;;;12.40;1.98;;;;;;;18.53;74.23;100621.00;4930399;29;20725;-75
2022/09/09 07:57:07;;;;;;;10.45;2.30;;;;;;;18.57;74.61;100622.50;4929078;29;20045;-75
2022/09/09 07:59:38;;;;;;;26.70;3.50;;;;;;;18.59;74.57;100620.59;4915042;29;20041;-75
2022/09/09 08:02:06;;;;;;;7.05;1.90;;;;;;;18.67;73.87;100629.91;4911093;29;20609;-75
2022/09/09 08:04:35;;;;;;;7.28;1.90;;;;;;;18.73;73.46;100629.47;4921764;29;20053;-75
2022/09/09 08:07:04;;;;;;;6.00;1.85;;;;;;;18.75;72.68;100627.56;4930224;29;20044;-75
2022/09/09 08:09:41;;;;;;;9.00;1.92;;;;;;;18.77;72.53;100628.34;4909983;29;20041;-74
2022/09/09 08:12:18;;;;;;;9.15;1.85;;;;;;;18.82;71.89;100630.69;4913808;29;20057;-75
2022/09/09 08:14:46;;;;;;;7.63;1.80;;;;;;;18.77;72.15;100631.84;4929166;29;20146;-75
2022/09/09 08:17:13;;;;;;;7.35;1.98;;;;;;;18.76;71.96;100630.13;4913809;29;20085;-75
2022/09/09 08:19:40;;;;;;;13.82;2.60;;;;;;;18.80;71.01;100632.59;4914286;29;20037;-75
2022/09/09 08:22:12;;;;;;;5.40;1.60;;;;;;;18.89;70.34;100635.47;4902813;29;20067;-74
2022/09/09 08:24:40;;;;;;;8.90;1.88;;;;;;;19.00;70.70;100632.13;4914226;29;20068;-75
2022/09/09 08:27:09;;;;;;;6.07;1.80;;;;;;;19.17;70.56;100638.97;4914936;29;20491;-74
2022/09/09 08:29:37;;;;;;;13.02;2.25;;;;;;;19.18;69.44;100629.94;4922074;29;20050;-75
2022/09/09 08:32:05;;;;;;;12.75;1.80;;;;;;;19.20;69.22;100643.22;4928846;29;20047;-75
2022/09/09 08:34:33;;;;;;;8.45;1.45;;;;;;;19.17;69.25;100646.97;4913189;29;20048;-75
2022/09/09 08:37:05;;;;;;;11.43;1.67;;;;;;;19.15;69.16;100643.56;4927266;29;20072;-74
2022/09/09 08:39:37;;;;;;;6.55;1.40;;;;;;;19.15;68.87;100643.56;4932013;28;20048;-74
2022/09/09 08:42:31;;;;;;;4.85;1.20;;;;;;;19.25;69.07;100641.06;4917200;29;20902;-75
2022/09/09 08:45:34;;;;;;;6.80;1.67;;;;;;;19.37;68.51;100648.22;4922450;29;20057;-75
2022/09/09 08:48:12;;;;;;;9.43;1.98;;;;;;;19.50;67.94;100645.53;4913370;29;20159;-74
2022/09/09 08:50:43;;;;;;;7.70;1.45;;;;;;;19.68;67.38;100640.69;4915158;29;20559;-74
2022/09/09 08:53:30;;;;;;;10.18;1.70;;;;;;;19.93;67.40;100649.66;4928893;28;20055;-75
2022/09/09 08:56:11;;;;;;;5.57;1.55;;;;;;;20.09;66.23;100636.03;4916252;29;20048;-74
2022/09/09 08:58:53;;;;;;;8.43;1.45;;;;;;;20.24;67.10;100649.22;4913015;29;20112;-74
2022/09/09 09:01:50;;;;;;;12.35;1.80;;;;;;;20.40;66.23;100647.09;4928355;29;20584;-74
2022/09/09 09:05:04;;;;;;;7.65;1.30;;;;;;;20.50;66.36;100639.22;4929318;29;20076;-75
2022/09/09 09:08:07;;;;;;;10.88;1.75;;;;;;;20.44;65.10;100651.25;4893222;29;20088;-75
2022/09/09 09:10:50;;;;;;;13.95;2.08;;;;;;;20.21;65.70;100655.66;4917051;29;20611;-75
2022/09/09 09:13:40;;;;;;;14.00;1.30;;;;;;;19.98;65.79;100660.03;4927777;29;20056;-74
2022/09/09 09:16:40;;;;;;;6.40;1.40;;;;;;;19.76;65.77;100666.91;4928503;29;20049;-75
2022/09/09 09:19:14;;;;;;;10.55;1.58;;;;;;;19.68;65.80;100666.59;4913005;29;20049;-75
2022/09/09 09:21:50;;;;;;;6.47;1.30;;;;;;;19.77;65.78;100657.03;4929200;29;20517;-74
2022/09/09 09:24:32;;;;;;;14.13;1.75;;;;;;;19.96;67.02;100665.47;4913029;29;20063;-74
2022/09/09 09:27:21;;;;;;;6.65;1.52;;;;;;;20.19;65.54;100657.59;4927621;29;20064;-74
2022/09/09 09:29:58;;;;;;;11.60;1.20;;;;;;;20.34;65.14;100650.25;4911268;29;20041;-74
2022/09/09 09:33:02;;;;;;;16.42;1.77;;;;;;;20.46;64.64;100651.13;4912330;29;20051;-75
2022/09/09 09:35:30;;;;;;;11.82;1.52;;;;;;;20.50;63.81;100657.13;4909520;29;20148;-75
2022/09/09 09:38:00;;;;;;;14.65;2.10;;;;;;;20.52;63.74;100655.16;4910236;29;20051;-74
2022/09/09 09:40:58;;;;;;;6.03;1.42;;;;;;;20.42;62.49;100658.53;4907432;29;20056;-75
2022/09/09 09:43:36;;;;;;;3.67;1.23;;;;;;;20.25;63.33;100670.50;4912218;29;20048;-74
2022/09/09 09:46:25;;;;;;;7.97;1.50;;;;;;;20.02;63.57;100658.81;4911072;29;20226;-75
2022/09/09 09:49:05;;;;;;;6.22;1.15;;;;;;;19.81;64.30;100671.91;4928969;29;20124;-73
2022/09/09 09:51:34;;;;;;;4.80;1.20;;;;;;;19.62;64.32;100659.00;4920592;29;20065;-74
2022/09/09 09:54:38;;;;;;;7.57;1.73;;;;;;;19.46;64.60;100659.22;4934982;29;20058;-75
2022/09/09 09:57:14;;;;;;;11.75;1.58;;;;;;;19.39;65.56;100665.03;4923667;29;20161;-74
2022/09/09 09:59:45;;;;;;;5.75;1.10;;;;;;;19.40;65.61;100658.72;4931576;29;20072;-74
2022/09/09 10:02:26;;;;;;;10.70;1.58;;;;;;;19.35;66.08;100663.50;4914493;29;20063;-74
2022/09/09 10:05:18;;;;;;;6.17;1.30;;;;;;;19.28;65.97;100658.72;4915313;29;20040;-75
2022/09/09 10:08:13;;;;;;;10.13;1.55;;;;;;;19.24;65.89;100663.41;4913874;29;20104;-73
2022/09/09 10:11:05;;;;;;;5.68;1.48;;;;;;;19.14;65.93;100659.66;4916653;29;20056;-74
2022/09/09 10:13:49;;;;;;;9.85;1.30;;;;;;;19.07;66.57;100668.13;4917162;29;20473;-75
2022/09/09 10:16:55;;;;;;;4.70;0.93;;;;;;;19.08;66.75;100655.59;4903474;29;20045;-74
2022/09/09 10:19:28;;;;;;;6.85;1.70;;;;;;;19.18;66.54;100656.66;4895475;29;20057;-74
2022/09/09 10:22:27;;;;;;;6.32;1.10;;;;;;;19.34;65.99;100644.94;4917060;29;20049;-74
2022/09/09 10:25:12;;;;;;;5.85;1.40;;;;;;;19.44;65.92;100655.81;4914882;29;20044;-74
2022/09/09 10:28:17;;;;;;;5.00;1.30;;;;;;;19.41;64.81;100654.22;4915817;29;20052;-74
2022/09/09 10:30:53;;;;;;;;;;;;;;;19.30;65.48;100656.78;4917198;29;20040;-74
2022/09/09 10:34:06;;;;;;;9.93;1.50;;;;;;;19.27;65.81;100657.03;4912317;29;19934;-73
2022/09/09 10:36:42;;;;;;;5.78;1.40;;;;;;;19.23;66.00;100659.91;4898973;29;20087;-74
2022/09/09 10:39:35;;;;;;;8.60;1.45;;;;;;;19.28;66.14;100659.56;4917091;29;20512;-74
2022/09/09 10:42:18;;;;;;;11.82;1.45;;;;;;;19.34;65.99;100666.31;4916444;29;20051;-74
2022/09/09 10:45:07;;;;;;;7.35;1.20;;;;;;;19.49;66.16;100659.88;4917057;29;20044;-74
2022/09/09 10:48:03;;;;;;;8.48;1.42;;;;;;;19.71;65.78;100648.50;4915746;29;20727;-73
2022/09/09 10:50:44;;;;;;;6.95;1.33;;;;;;;19.96;64.60;100660.13;4916066;29;20100;-74
2022/09/09 10:53:47;;;;;;;5.82;1.10;;;;;;;20.05;64.77;100663.97;4916657;29;20051;-74
2022/09/09 10:56:20;;;;;;;7.57;1.17;;;;;;;20.05;64.35;100663.97;4916019;29;20048;-74
2022/09/09 10:59:14;;;;;;;3.67;0.93;;;;;;;19.92;63.25;100655.97;4916314;29;20044;-74
2022/09/09 11:02:12;;;;;;;12.85;2.13;;;;;;;19.78;64.08;100659.63;4915710;29;20048;-74
2022/09/09 11:05:20;;;;;;;7.15;1.10;;;;;;;19.75;64.18;100653.63;4914771;29;20052;-74
2022/09/09 11:07:55;;;;;;;11.38;2.08;;;;;;;19.75;64.22;100656.28;4900451;29;20057;-73
2022/09/09 11:10:41;;;;;;;16.48;2.20;;;;;;;19.68;64.07;100662.09;4915802;29;20040;-74
2022/09/09 11:13:26;;;;;;;5.07;1.35;;;;;;;19.62;64.31;100656.31;4909753;29;20055;-74
2022/09/09 11:16:03;;;;;;;17.02;3.05;;;;;;;19.55;64.61;100669.28;4916079;29;20059;-73
2022/09/09 11:18:41;;;;;;;6.82;1.20;;;;;;;19.45;65.01;100666.41;4915788;29;20109;-74
2022/09/09 11:21:24;;;;;;;5.57;1.13;;;;;;;19.33;66.69;100675.28;4930357;29;20492;-74
2022/09/09 11:24:04;;;;;;;5.47;1.10;;;;;;;19.18;67.66;100672.72;4916447;29;20051;-75
2022/09/09 11:26:47;;;;;;;4.03;1.20;;;;;;;18.99;69.06;100677.59;4915465;29;20513;-75
2022/09/09 11:30:20;;;;;;;5.93;1.15;;;;;;;18.86;70.34;100683.78;4917531;29;20604;-74
2022/09/09 11:33:21;;;;;;;4.10;1.02;;;;;;;18.68;70.92;100675.19;4846756;29;20050;-74
2022/09/09 11:36:37;;;;;;;8.73;1.20;;;;;;;18.55;72.06;100679.63;4850542;29;20049;-75
2022/09/09 11:39:46;;;;;;;6.55;1.30;;;;;;;18.35;72.81;100683.63;4922838;29;20055;-73
2022/09/09 11:42:13;;;;;;;7.90;1.50;;;;;;;18.21;73.60;100697.88;4931917;28;20040;-74
2022/09/09 11:44:41;;;;;;;7.05;1.45;;;;;;;18.12;74.13;100684.16;4916841;29;20056;-73
2022/09/09 11:47:31;;;;;;;8.98;1.50;;;;;;;18.03;74.55;100691.91;4913436;29;20052;-73
2022/09/09 11:50:36;;;;;;;7.00;1.85;;;;;;;17.87;75.32;100687.50;4915839;29;20073;-73
2022/09/09 11:53:13;;;;;;;6.47;1.60;;;;;;;17.70;75.82;100689.44;4948289;28;20538;-73
2022/09/09 11:55:42;;;;;;;6.65;1.50;;;;;;;17.56;76.86;100681.44;4973468;28;20047;-73
2022/09/09 11:58:10;;;;;;;8.05;1.60;;;;;;;17.44;77.60;100688.38;4972707;28;20043;-72
2022/09/09 12:00:48;;;;;;;9.00;1.63;;;;;;;17.36;78.28;100680.00;4952612;28;20074;-73
2022/09/09 12:03:37;;;;;;;6.95;1.85;;;;;;;17.29;78.76;100697.34;4952966;28;20123;-73
2022/09/09 12:06:25;;;;;;;5.50;1.65;;;;;;;17.19;79.38;100697.03;4952927;28;20044;-72
2022/09/09 12:09:05;;;;;;;6.22;1.48;;;;;;;17.15;79.83;100682.16;4953974;28;20047;-73
2022/09/09 12:11:32;;;;;;;4.32;1.40;;;;;;;17.29;79.99;100674.19;4952711;28;20047;-72
2022/09/09 12:14:00;;;;;;;8.52;1.70;;;;;;;17.68;80.59;100675.34;4952559;28;20087;-73
2022/09/09 12:16:38;;;;;;;4.60;1.35;;;;;;;18.19;80.54;100673.94;4952108;28;20052;-72